Arnesen, Minnesota
Current Conditions -  °F | °C
As of 4:54 AM on Thursday 23 Oct 2014 (Local Time) from KRRT Reporting Station
Broken Clouds Broken Clouds  
Wind Chill: 45°   Ceiling: 7000
Heat Index: 48°   Visibility: 7mi
Dew Point: 45°   Wind: 7mph
Humidity: 87%   Direction: 200°SSW
Pressure: 29.83"   Gusts: NA
Location:  48.6345°N, 95.1786°W
Report Text: KRRT 230954Z AUTO 20006KT 7SM SCT060 BKN070 09/07 A2983 RMK AO2
Loading
Personal Weather Stations






























Interactive Weather Map
Tropical Storm Tracking
New forecast layout! Learn more

10-Day Weather Forecast

Advertisements
Track Severe Weather on mobile